sensor_id;sensor_type;location;lat;lon;timestamp;P1;durP1;ratioP1;P2;durP2;ratioP2
64678;SDS011;51094;53.864;27.676;2023-05-10T00:00:59;1.10;;;1.10;;
64678;SDS011;51094;53.864;27.676;2023-05-10T00:03:26;1.10;;;1.10;;
64678;SDS011;51094;53.864;27.676;2023-05-10T00:05:53;1.10;;;1.10;;
64678;SDS011;51094;53.864;27.676;2023-05-10T00:08:20;1.10;;;1.10;;
64678;SDS011;51094;53.864;27.676;2023-05-10T00:10:46;1.02;;;1.02;;
64678;SDS011;51094;53.864;27.676;2023-05-10T00:13:13;1.10;;;1.10;;
64678;SDS011;51094;53.864;27.676;2023-05-10T00:15:40;1.15;;;1.15;;
64678;SDS011;51094;53.864;27.676;2023-05-10T00:18:07;1.13;;;1.13;;
64678;SDS011;51094;53.864;27.676;2023-05-10T00:20:34;1.20;;;1.20;;
64678;SDS011;51094;53.864;27.676;2023-05-10T00:23:01;1.08;;;1.08;;
64678;SDS011;51094;53.864;27.676;2023-05-10T00:25:27;1.10;;;1.10;;
64678;SDS011;51094;53.864;27.676;2023-05-10T00:27:54;1.00;;;1.00;;
64678;SDS011;51094;53.864;27.676;2023-05-10T00:30:24;1.20;;;1.20;;
64678;SDS011;51094;53.864;27.676;2023-05-10T00:32:51;1.10;;;1.10;;
64678;SDS011;51094;53.864;27.676;2023-05-10T00:35:18;1.30;;;1.30;;
64678;SDS011;51094;53.864;27.676;2023-05-10T00:37:46;1.15;;;1.15;;
64678;SDS011;51094;53.864;27.676;2023-05-10T00:40:14;1.10;;;1.10;;
64678;SDS011;51094;53.864;27.676;2023-05-10T00:42:44;1.10;;;1.10;;
64678;SDS011;51094;53.864;27.676;2023-05-10T00:45:11;1.10;;;1.10;;
64678;SDS011;51094;53.864;27.676;2023-05-10T00:47:38;1.15;;;1.15;;
64678;SDS011;51094;53.864;27.676;2023-05-10T00:50:05;0.90;;;0.90;;
64678;SDS011;51094;53.864;27.676;2023-05-10T00:52:32;0.90;;;0.90;;
64678;SDS011;51094;53.864;27.676;2023-05-10T00:54:59;1.00;;;1.00;;
64678;SDS011;51094;53.864;27.676;2023-05-10T00:57:26;1.00;;;1.00;;
64678;SDS011;51094;53.864;27.676;2023-05-10T00:59:53;1.10;;;1.10;;
64678;SDS011;51094;53.864;27.676;2023-05-10T01:02:20;1.10;;;1.10;;
64678;SDS011;51094;53.864;27.676;2023-05-10T01:04:47;1.00;;;1.00;;
64678;SDS011;51094;53.864;27.676;2023-05-10T01:07:15;1.10;;;1.10;;
64678;SDS011;51094;53.864;27.676;2023-05-10T01:09:43;1.00;;;1.00;;
64678;SDS011;51094;53.864;27.676;2023-05-10T01:12:10;1.00;;;1.00;;
64678;SDS011;51094;53.864;27.676;2023-05-10T01:14:38;1.00;;;1.00;;
64678;SDS011;51094;53.864;27.676;2023-05-10T01:17:05;1.20;;;1.20;;
64678;SDS011;51094;53.864;27.676;2023-05-10T01:19:37;1.10;;;1.10;;
64678;SDS011;51094;53.864;27.676;2023-05-10T01:22:09;1.10;;;1.10;;
64678;SDS011;51094;53.864;27.676;2023-05-10T01:25:11;1.00;;;1.00;;
64678;SDS011;51094;53.864;27.676;2023-05-10T01:33:35;1.30;;;1.30;;
64678;SDS011;51094;53.864;27.676;2023-05-10T01:36:19;1.10;;;1.10;;
64678;SDS011;51094;53.864;27.676;2023-05-10T01:46:59;1.10;;;1.10;;
64678;SDS011;51094;53.864;27.676;2023-05-10T01:49:31;1.08;;;1.08;;
64678;SDS011;51094;53.864;27.676;2023-05-10T01:52:04;1.10;;;1.10;;
64678;SDS011;51094;53.864;27.676;2023-05-10T01:54:41;1.10;;;1.10;;
64678;SDS011;51094;53.864;27.676;2023-05-10T01:57:11;1.20;;;1.20;;
64678;SDS011;51094;53.864;27.676;2023-05-10T01:59:40;1.05;;;1.05;;
64678;SDS011;51094;53.864;27.676;2023-05-10T02:02:12;1.10;;;1.10;;
64678;SDS011;51094;53.864;27.676;2023-05-10T02:04:41;1.20;;;1.20;;
64678;SDS011;51094;53.864;27.676;2023-05-10T02:07:09;1.27;;;1.27;;
64678;SDS011;51094;53.864;27.676;2023-05-10T02:09:38;1.17;;;1.17;;
64678;SDS011;51094;53.864;27.676;2023-05-10T02:12:05;1.20;;;1.20;;
64678;SDS011;51094;53.864;27.676;2023-05-10T02:14:34;1.30;;;1.30;;
64678;SDS011;51094;53.864;27.676;2023-05-10T02:17:04;1.27;;;1.27;;
64678;SDS011;51094;53.864;27.676;2023-05-10T02:19:32;1.20;;;1.20;;
64678;SDS011;51094;53.864;27.676;2023-05-10T02:22:00;1.40;;;1.40;;
64678;SDS011;51094;53.864;27.676;2023-05-10T02:24:31;1.20;;;1.20;;
64678;SDS011;51094;53.864;27.676;2023-05-10T02:27:00;1.30;;;1.30;;
64678;SDS011;51094;53.864;27.676;2023-05-10T02:29:30;1.40;;;1.40;;
64678;SDS011;51094;53.864;27.676;2023-05-10T02:31:58;1.30;;;1.30;;
64678;SDS011;51094;53.864;27.676;2023-05-10T02:34:26;1.30;;;1.30;;
64678;SDS011;51094;53.864;27.676;2023-05-10T02:36:54;1.58;;;1.58;;
64678;SDS011;51094;53.864;27.676;2023-05-10T02:39:22;1.50;;;1.50;;
64678;SDS011;51094;53.864;27.676;2023-05-10T02:41:51;1.50;;;1.50;;
64678;SDS011;51094;53.864;27.676;2023-05-10T02:44:19;1.58;;;1.55;;
64678;SDS011;51094;53.864;27.676;2023-05-10T02:46:48;1.60;;;1.60;;
64678;SDS011;51094;53.864;27.676;2023-05-10T02:49:15;1.33;;;1.33;;
64678;SDS011;51094;53.864;27.676;2023-05-10T02:51:47;1.58;;;1.58;;
64678;SDS011;51094;53.864;27.676;2023-05-10T02:54:18;1.60;;;1.60;;
64678;SDS011;51094;53.864;27.676;2023-05-10T02:56:56;1.55;;;1.55;;
64678;SDS011;51094;53.864;27.676;2023-05-10T02:59:26;1.80;;;1.80;;
64678;SDS011;51094;53.864;27.676;2023-05-10T03:01:53;1.85;;;1.85;;
64678;SDS011;51094;53.864;27.676;2023-05-10T03:04:20;1.60;;;1.60;;
64678;SDS011;51094;53.864;27.676;2023-05-10T03:06:47;1.90;;;1.90;;
64678;SDS011;51094;53.864;27.676;2023-05-10T03:09:14;1.70;;;1.70;;
64678;SDS011;51094;53.864;27.676;2023-05-10T03:17:35;1.92;;;1.92;;
64678;SDS011;51094;53.864;27.676;2023-05-10T03:20:22;1.70;;;1.70;;
64678;SDS011;51094;53.864;27.676;2023-05-10T03:22:57;1.70;;;1.70;;
64678;SDS011;51094;53.864;27.676;2023-05-10T03:25:31;1.80;;;1.80;;
64678;SDS011;51094;53.864;27.676;2023-05-10T03:28:01;1.92;;;1.92;;
64678;SDS011;51094;53.864;27.676;2023-05-10T03:30:31;2.00;;;2.00;;
64678;SDS011;51094;53.864;27.676;2023-05-10T03:33:04;2.35;;;2.35;;
64678;SDS011;51094;53.864;27.676;2023-05-10T03:35:37;4.03;;;3.92;;
64678;SDS011;51094;53.864;27.676;2023-05-10T03:38:05;4.25;;;4.15;;
64678;SDS011;51094;53.864;27.676;2023-05-10T03:40:32;4.13;;;4.00;;
64678;SDS011;51094;53.864;27.676;2023-05-10T03:42:59;4.07;;;3.97;;
64678;SDS011;51094;53.864;27.676;2023-05-10T03:45:26;3.20;;;3.10;;
64678;SDS011;51094;53.864;27.676;2023-05-10T03:47:53;2.70;;;2.60;;
64678;SDS011;51094;53.864;27.676;2023-05-10T03:50:20;2.83;;;2.72;;
64678;SDS011;51094;53.864;27.676;2023-05-10T03:52:47;2.78;;;2.67;;
64678;SDS011;51094;53.864;27.676;2023-05-10T03:55:14;2.33;;;2.28;;
64678;SDS011;51094;53.864;27.676;2023-05-10T03:57:41;2.45;;;2.45;;
64678;SDS011;51094;53.864;27.676;2023-05-10T04:00:09;2.38;;;2.38;;
64678;SDS011;51094;53.864;27.676;2023-05-10T04:02:42;2.20;;;2.20;;
64678;SDS011;51094;53.864;27.676;2023-05-10T04:05:15;2.13;;;2.13;;
64678;SDS011;51094;53.864;27.676;2023-05-10T04:07:43;2.40;;;2.30;;
64678;SDS011;51094;53.864;27.676;2023-05-10T04:10:11;1.75;;;1.75;;
64678;SDS011;51094;53.864;27.676;2023-05-10T04:12:38;1.60;;;1.60;;
64678;SDS011;51094;53.864;27.676;2023-05-10T04:15:05;1.40;;;1.40;;
64678;SDS011;51094;53.864;27.676;2023-05-10T04:17:33;1.50;;;1.50;;
64678;SDS011;51094;53.864;27.676;2023-05-10T04:20:00;1.35;;;1.35;;
64678;SDS011;51094;53.864;27.676;2023-05-10T04:22:27;1.23;;;1.23;;
64678;SDS011;51094;53.864;27.676;2023-05-10T04:24:55;1.30;;;1.30;;
64678;SDS011;51094;53.864;27.676;2023-05-10T04:27:22;1.40;;;1.40;;
64678;SDS011;51094;53.864;27.676;2023-05-10T04:29:50;1.40;;;1.40;;
64678;SDS011;51094;53.864;27.676;2023-05-10T04:32:17;1.40;;;1.40;;
64678;SDS011;51094;53.864;27.676;2023-05-10T04:34:44;1.48;;;1.48;;
64678;SDS011;51094;53.864;27.676;2023-05-10T04:37:11;1.65;;;1.65;;
64678;SDS011;51094;53.864;27.676;2023-05-10T04:39:38;1.67;;;1.67;;
64678;SDS011;51094;53.864;27.676;2023-05-10T04:42:07;1.48;;;1.48;;
64678;SDS011;51094;53.864;27.676;2023-05-10T04:44:35;1.80;;;1.80;;
64678;SDS011;51094;53.864;27.676;2023-05-10T04:47:02;1.70;;;1.70;;
64678;SDS011;51094;53.864;27.676;2023-05-10T04:49:29;1.80;;;1.80;;
64678;SDS011;51094;53.864;27.676;2023-05-10T04:52:08;1.92;;;1.92;;
64678;SDS011;51094;53.864;27.676;2023-05-10T04:54:35;1.80;;;1.80;;
64678;SDS011;51094;53.864;27.676;2023-05-10T04:57:02;1.90;;;1.90;;
64678;SDS011;51094;53.864;27.676;2023-05-10T04:59:29;1.88;;;1.88;;
64678;SDS011;51094;53.864;27.676;2023-05-10T05:01:58;1.60;;;1.60;;
64678;SDS011;51094;53.864;27.676;2023-05-10T05:04:29;1.70;;;1.70;;
64678;SDS011;51094;53.864;27.676;2023-05-10T05:06:56;1.70;;;1.70;;
64678;SDS011;51094;53.864;27.676;2023-05-10T05:09:23;1.40;;;1.40;;
64678;SDS011;51094;53.864;27.676;2023-05-10T05:11:50;1.40;;;1.40;;
64678;SDS011;51094;53.864;27.676;2023-05-10T05:14:16;1.30;;;1.30;;
64678;SDS011;51094;53.864;27.676;2023-05-10T05:16:43;1.30;;;1.30;;
64678;SDS011;51094;53.864;27.676;2023-05-10T05:19:10;1.30;;;1.30;;
64678;SDS011;51094;53.864;27.676;2023-05-10T05:21:40;1.25;;;1.25;;
64678;SDS011;51094;53.864;27.676;2023-05-10T05:24:07;1.30;;;1.30;;
64678;SDS011;51094;53.864;27.676;2023-05-10T05:26:34;1.35;;;1.35;;
64678;SDS011;51094;53.864;27.676;2023-05-10T05:29:01;1.20;;;1.20;;
64678;SDS011;51094;53.864;27.676;2023-05-10T05:31:29;1.30;;;1.30;;
64678;SDS011;51094;53.864;27.676;2023-05-10T05:33:56;1.33;;;1.33;;
64678;SDS011;51094;53.864;27.676;2023-05-10T05:36:22;1.40;;;1.40;;
64678;SDS011;51094;53.864;27.676;2023-05-10T05:38:49;1.30;;;1.30;;
64678;SDS011;51094;53.864;27.676;2023-05-10T05:41:16;1.40;;;1.40;;
64678;SDS011;51094;53.864;27.676;2023-05-10T05:43:43;1.10;;;1.10;;
64678;SDS011;51094;53.864;27.676;2023-05-10T05:46:10;1.02;;;1.02;;
64678;SDS011;51094;53.864;27.676;2023-05-10T05:48:37;1.10;;;1.10;;
64678;SDS011;51094;53.864;27.676;2023-05-10T05:51:03;1.20;;;1.20;;
64678;SDS011;51094;53.864;27.676;2023-05-10T05:53:32;1.23;;;1.23;;
64678;SDS011;51094;53.864;27.676;2023-05-10T05:55:59;1.30;;;1.30;;
64678;SDS011;51094;53.864;27.676;2023-05-10T05:58:26;1.30;;;1.30;;
64678;SDS011;51094;53.864;27.676;2023-05-10T06:00:53;1.10;;;1.10;;
64678;SDS011;51094;53.864;27.676;2023-05-10T06:03:20;1.20;;;1.20;;
64678;SDS011;51094;53.864;27.676;2023-05-10T06:05:47;1.30;;;1.30;;
64678;SDS011;51094;53.864;27.676;2023-05-10T06:08:14;1.40;;;1.40;;
64678;SDS011;51094;53.864;27.676;2023-05-10T06:10:41;1.48;;;1.48;;
64678;SDS011;51094;53.864;27.676;2023-05-10T06:13:08;1.25;;;1.25;;
64678;SDS011;51094;53.864;27.676;2023-05-10T06:15:35;1.50;;;1.40;;
64678;SDS011;51094;53.864;27.676;2023-05-10T06:18:02;1.30;;;1.20;;
64678;SDS011;51094;53.864;27.676;2023-05-10T06:20:29;1.20;;;1.20;;
64678;SDS011;51094;53.864;27.676;2023-05-10T06:22:58;1.30;;;1.30;;
64678;SDS011;51094;53.864;27.676;2023-05-10T06:25:25;1.20;;;1.20;;
64678;SDS011;51094;53.864;27.676;2023-05-10T06:27:51;1.20;;;1.20;;
64678;SDS011;51094;53.864;27.676;2023-05-10T06:30:23;1.00;;;1.00;;
64678;SDS011;51094;53.864;27.676;2023-05-10T06:32:55;1.20;;;1.20;;
64678;SDS011;51094;53.864;27.676;2023-05-10T06:35:23;1.27;;;1.27;;
64678;SDS011;51094;53.864;27.676;2023-05-10T06:37:49;1.40;;;1.30;;
64678;SDS011;51094;53.864;27.676;2023-05-10T06:40:17;1.20;;;1.20;;
64678;SDS011;51094;53.864;27.676;2023-05-10T06:42:44;1.38;;;1.30;;
64678;SDS011;51094;53.864;27.676;2023-05-10T06:45:12;1.10;;;1.10;;
64678;SDS011;51094;53.864;27.676;2023-05-10T06:47:40;1.17;;;1.17;;
64678;SDS011;51094;53.864;27.676;2023-05-10T06:50:07;1.20;;;1.20;;
64678;SDS011;51094;53.864;27.676;2023-05-10T06:52:35;1.30;;;1.30;;
64678;SDS011;51094;53.864;27.676;2023-05-10T06:55:02;1.00;;;1.00;;
64678;SDS011;51094;53.864;27.676;2023-05-10T06:57:30;0.90;;;0.90;;
64678;SDS011;51094;53.864;27.676;2023-05-10T06:59:58;0.90;;;0.90;;
64678;SDS011;51094;53.864;27.676;2023-05-10T07:02:25;0.82;;;0.82;;
64678;SDS011;51094;53.864;27.676;2023-05-10T07:04:52;0.98;;;0.98;;
64678;SDS011;51094;53.864;27.676;2023-05-10T07:07:19;0.90;;;0.90;;
64678;SDS011;51094;53.864;27.676;2023-05-10T07:09:46;0.80;;;0.80;;
64678;SDS011;51094;53.864;27.676;2023-05-10T07:12:13;0.90;;;0.90;;
64678;SDS011;51094;53.864;27.676;2023-05-10T07:14:41;1.00;;;1.00;;
64678;SDS011;51094;53.864;27.676;2023-05-10T07:17:09;0.88;;;0.88;;
64678;SDS011;51094;53.864;27.676;2023-05-10T07:19:36;1.00;;;1.00;;
64678;SDS011;51094;53.864;27.676;2023-05-10T07:22:03;0.90;;;0.90;;
64678;SDS011;51094;53.864;27.676;2023-05-10T07:24:31;0.77;;;0.77;;
64678;SDS011;51094;53.864;27.676;2023-05-10T07:26:59;0.88;;;0.88;;
64678;SDS011;51094;53.864;27.676;2023-05-10T07:29:26;0.80;;;0.80;;
64678;SDS011;51094;53.864;27.676;2023-05-10T07:31:53;0.80;;;0.80;;
64678;SDS011;51094;53.864;27.676;2023-05-10T07:34:24;0.82;;;0.82;;
64678;SDS011;51094;53.864;27.676;2023-05-10T07:36:51;0.80;;;0.80;;
64678;SDS011;51094;53.864;27.676;2023-05-10T07:39:18;0.90;;;0.90;;
64678;SDS011;51094;53.864;27.676;2023-05-10T07:41:52;0.82;;;0.82;;
64678;SDS011;51094;53.864;27.676;2023-05-10T07:44:19;0.70;;;0.70;;
64678;SDS011;51094;53.864;27.676;2023-05-10T07:46:47;0.80;;;0.80;;
64678;SDS011;51094;53.864;27.676;2023-05-10T07:49:14;0.80;;;0.80;;
64678;SDS011;51094;53.864;27.676;2023-05-10T07:51:41;0.73;;;0.73;;
64678;SDS011;51094;53.864;27.676;2023-05-10T07:54:09;0.80;;;0.80;;
64678;SDS011;51094;53.864;27.676;2023-05-10T07:56:35;0.80;;;0.80;;
64678;SDS011;51094;53.864;27.676;2023-05-10T07:59:02;0.80;;;0.80;;
64678;SDS011;51094;53.864;27.676;2023-05-10T08:01:35;0.77;;;0.77;;
64678;SDS011;51094;53.864;27.676;2023-05-10T08:04:02;0.70;;;0.70;;
64678;SDS011;51094;53.864;27.676;2023-05-10T08:06:29;0.73;;;0.73;;
64678;SDS011;51094;53.864;27.676;2023-05-10T08:08:56;0.70;;;0.70;;
64678;SDS011;51094;53.864;27.676;2023-05-10T08:11:23;0.70;;;0.70;;
64678;SDS011;51094;53.864;27.676;2023-05-10T08:13:51;0.80;;;0.80;;
64678;SDS011;51094;53.864;27.676;2023-05-10T08:16:18;0.70;;;0.70;;
64678;SDS011;51094;53.864;27.676;2023-05-10T08:18:45;0.93;;;0.93;;
64678;SDS011;51094;53.864;27.676;2023-05-10T08:21:13;0.80;;;0.80;;
64678;SDS011;51094;53.864;27.676;2023-05-10T08:23:41;0.70;;;0.70;;
64678;SDS011;51094;53.864;27.676;2023-05-10T08:26:10;0.90;;;0.90;;
64678;SDS011;51094;53.864;27.676;2023-05-10T08:28:37;0.70;;;0.70;;
64678;SDS011;51094;53.864;27.676;2023-05-10T08:31:04;0.70;;;0.70;;
64678;SDS011;51094;53.864;27.676;2023-05-10T08:33:31;0.68;;;0.68;;
64678;SDS011;51094;53.864;27.676;2023-05-10T08:35:58;0.80;;;0.80;;
64678;SDS011;51094;53.864;27.676;2023-05-10T08:38:25;0.80;;;0.80;;
64678;SDS011;51094;53.864;27.676;2023-05-10T08:40:52;0.80;;;0.80;;
64678;SDS011;51094;53.864;27.676;2023-05-10T08:43:24;0.80;;;0.80;;
64678;SDS011;51094;53.864;27.676;2023-05-10T08:45:59;0.70;;;0.70;;
64678;SDS011;51094;53.864;27.676;2023-05-10T08:48:29;0.90;;;0.90;;
64678;SDS011;51094;53.864;27.676;2023-05-10T08:50:57;0.70;;;0.70;;
64678;SDS011;51094;53.864;27.676;2023-05-10T08:55:55;0.90;;;0.90;;
64678;SDS011;51094;53.864;27.676;2023-05-10T08:58:24;0.77;;;0.77;;
64678;SDS011;51094;53.864;27.676;2023-05-10T09:00:51;0.80;;;0.80;;
64678;SDS011;51094;53.864;27.676;2023-05-10T09:03:19;0.70;;;0.70;;
64678;SDS011;51094;53.864;27.676;2023-05-10T09:05:47;0.70;;;0.70;;
64678;SDS011;51094;53.864;27.676;2023-05-10T09:08:15;0.70;;;0.70;;
64678;SDS011;51094;53.864;27.676;2023-05-10T09:10:43;0.70;;;0.70;;
64678;SDS011;51094;53.864;27.676;2023-05-10T09:13:11;0.70;;;0.70;;
64678;SDS011;51094;53.864;27.676;2023-05-10T09:15:38;0.70;;;0.70;;
64678;SDS011;51094;53.864;27.676;2023-05-10T09:18:05;0.70;;;0.70;;
64678;SDS011;51094;53.864;27.676;2023-05-10T09:20:32;0.88;;;0.88;;
64678;SDS011;51094;53.864;27.676;2023-05-10T09:22:59;0.70;;;0.70;;
64678;SDS011;51094;53.864;27.676;2023-05-10T09:25:26;0.80;;;0.80;;
64678;SDS011;51094;53.864;27.676;2023-05-10T09:27:53;0.70;;;0.70;;
64678;SDS011;51094;53.864;27.676;2023-05-10T09:32:56;0.70;;;0.70;;
64678;SDS011;51094;53.864;27.676;2023-05-10T09:35:25;0.63;;;0.63;;
64678;SDS011;51094;53.864;27.676;2023-05-10T09:37:56;0.70;;;0.70;;
64678;SDS011;51094;53.864;27.676;2023-05-10T09:40:26;0.60;;;0.60;;
64678;SDS011;51094;53.864;27.676;2023-05-10T09:42:55;0.68;;;0.68;;
64678;SDS011;51094;53.864;27.676;2023-05-10T09:45:30;0.60;;;0.60;;
64678;SDS011;51094;53.864;27.676;2023-05-10T09:47:58;0.73;;;0.73;;
64678;SDS011;51094;53.864;27.676;2023-05-10T09:50:27;0.70;;;0.70;;
64678;SDS011;51094;53.864;27.676;2023-05-10T09:52:59;0.75;;;0.75;;
64678;SDS011;51094;53.864;27.676;2023-05-10T09:55:41;0.80;;;0.80;;
64678;SDS011;51094;53.864;27.676;2023-05-10T09:58:11;0.70;;;0.70;;
64678;SDS011;51094;53.864;27.676;2023-05-10T10:00:42;0.70;;;0.70;;
64678;SDS011;51094;53.864;27.676;2023-05-10T10:03:18;0.65;;;0.65;;
64678;SDS011;51094;53.864;27.676;2023-05-10T10:05:48;0.80;;;0.80;;
64678;SDS011;51094;53.864;27.676;2023-05-10T10:08:15;0.90;;;0.90;;
64678;SDS011;51094;53.864;27.676;2023-05-10T10:10:44;0.83;;;0.83;;
64678;SDS011;51094;53.864;27.676;2023-05-10T10:13:12;0.93;;;0.93;;
64678;SDS011;51094;53.864;27.676;2023-05-10T10:15:40;0.70;;;0.70;;
64678;SDS011;51094;53.864;27.676;2023-05-10T10:18:08;0.73;;;0.73;;
64678;SDS011;51094;53.864;27.676;2023-05-10T10:20:39;0.70;;;0.70;;
64678;SDS011;51094;53.864;27.676;2023-05-10T10:23:07;0.80;;;0.80;;
64678;SDS011;51094;53.864;27.676;2023-05-10T10:25:35;0.82;;;0.82;;
64678;SDS011;51094;53.864;27.676;2023-05-10T10:28:48;0.65;;;0.65;;
64678;SDS011;51094;53.864;27.676;2023-05-10T10:31:21;0.75;;;0.75;;
64678;SDS011;51094;53.864;27.676;2023-05-10T10:33:54;0.70;;;0.70;;
64678;SDS011;51094;53.864;27.676;2023-05-10T10:36:26;0.70;;;0.70;;
64678;SDS011;51094;53.864;27.676;2023-05-10T10:38:57;0.85;;;0.85;;
64678;SDS011;51094;53.864;27.676;2023-05-10T10:41:37;0.80;;;0.80;;
64678;SDS011;51094;53.864;27.676;2023-05-10T10:50:03;0.75;;;0.75;;
64678;SDS011;51094;53.864;27.676;2023-05-10T10:52:38;0.60;;;0.60;;
64678;SDS011;51094;53.864;27.676;2023-05-10T10:55:17;0.60;;;0.60;;
64678;SDS011;51094;53.864;27.676;2023-05-10T10:57:52;0.50;;;0.50;;
64678;SDS011;51094;53.864;27.676;2023-05-10T11:00:30;0.60;;;0.60;;
64678;SDS011;51094;53.864;27.676;2023-05-10T11:07:56;0.60;;;0.60;;
64678;SDS011;51094;53.864;27.676;2023-05-10T11:13:07;0.80;;;0.80;;
64678;SDS011;51094;53.864;27.676;2023-05-10T11:15:36;0.70;;;0.70;;
64678;SDS011;51094;53.864;27.676;2023-05-10T11:18:27;0.60;;;0.60;;
64678;SDS011;51094;53.864;27.676;2023-05-10T11:20:58;0.77;;;0.77;;
64678;SDS011;51094;53.864;27.676;2023-05-10T11:23:32;0.70;;;0.70;;
64678;SDS011;51094;53.864;27.676;2023-05-10T11:26:14;0.70;;;0.70;;
64678;SDS011;51094;53.864;27.676;2023-05-10T11:28:41;0.77;;;0.77;;
64678;SDS011;51094;53.864;27.676;2023-05-10T11:31:16;0.70;;;0.70;;
64678;SDS011;51094;53.864;27.676;2023-05-10T11:33:47;0.70;;;0.70;;
64678;SDS011;51094;53.864;27.676;2023-05-10T11:36:18;0.70;;;0.70;;
64678;SDS011;51094;53.864;27.676;2023-05-10T11:38:46;0.60;;;0.60;;
64678;SDS011;51094;53.864;27.676;2023-05-10T11:41:15;0.80;;;0.80;;
64678;SDS011;51094;53.864;27.676;2023-05-10T11:43:45;0.77;;;0.77;;
64678;SDS011;51094;53.864;27.676;2023-05-10T11:46:15;0.82;;;0.82;;
64678;SDS011;51094;53.864;27.676;2023-05-10T11:48:44;0.68;;;0.68;;
64678;SDS011;51094;53.864;27.676;2023-05-10T11:51:11;0.87;;;0.87;;
64678;SDS011;51094;53.864;27.676;2023-05-10T11:53:38;0.77;;;0.77;;
64678;SDS011;51094;53.864;27.676;2023-05-10T11:56:05;0.70;;;0.70;;
64678;SDS011;51094;53.864;27.676;2023-05-10T11:58:37;0.70;;;0.70;;
64678;SDS011;51094;53.864;27.676;2023-05-10T12:01:05;0.70;;;0.70;;
64678;SDS011;51094;53.864;27.676;2023-05-10T12:03:33;0.73;;;0.73;;
64678;SDS011;51094;53.864;27.676;2023-05-10T12:06:01;0.90;;;0.90;;
64678;SDS011;51094;53.864;27.676;2023-05-10T12:08:29;0.73;;;0.73;;
64678;SDS011;51094;53.864;27.676;2023-05-10T12:11:07;0.80;;;0.80;;
64678;SDS011;51094;53.864;27.676;2023-05-10T12:13:37;0.80;;;0.80;;
64678;SDS011;51094;53.864;27.676;2023-05-10T12:16:15;0.70;;;0.70;;
64678;SDS011;51094;53.864;27.676;2023-05-10T12:18:44;0.90;;;0.90;;
64678;SDS011;51094;53.864;27.676;2023-05-10T12:21:12;0.85;;;0.85;;
64678;SDS011;51094;53.864;27.676;2023-05-10T12:23:39;0.77;;;0.77;;
64678;SDS011;51094;53.864;27.676;2023-05-10T12:26:08;0.85;;;0.85;;
64678;SDS011;51094;53.864;27.676;2023-05-10T12:28:36;1.00;;;1.00;;
64678;SDS011;51094;53.864;27.676;2023-05-10T12:31:04;0.90;;;0.90;;
64678;SDS011;51094;53.864;27.676;2023-05-10T12:33:39;0.80;;;0.80;;
64678;SDS011;51094;53.864;27.676;2023-05-10T12:36:11;0.75;;;0.75;;
64678;SDS011;51094;53.864;27.676;2023-05-10T12:38:42;0.73;;;0.73;;
64678;SDS011;51094;53.864;27.676;2023-05-10T12:41:17;0.80;;;0.80;;
64678;SDS011;51094;53.864;27.676;2023-05-10T12:43:45;0.73;;;0.73;;
64678;SDS011;51094;53.864;27.676;2023-05-10T12:48:41;0.80;;;0.80;;
64678;SDS011;51094;53.864;27.676;2023-05-10T12:51:09;0.80;;;0.80;;
64678;SDS011;51094;53.864;27.676;2023-05-10T12:53:41;0.70;;;0.70;;
64678;SDS011;51094;53.864;27.676;2023-05-10T12:56:11;0.80;;;0.80;;
64678;SDS011;51094;53.864;27.676;2023-05-10T12:58:38;0.88;;;0.88;;
64678;SDS011;51094;53.864;27.676;2023-05-10T13:01:05;0.70;;;0.70;;
64678;SDS011;51094;53.864;27.676;2023-05-10T13:03:32;0.60;;;0.60;;
64678;SDS011;51094;53.864;27.676;2023-05-10T13:05:59;0.80;;;0.80;;
64678;SDS011;51094;53.864;27.676;2023-05-10T13:08:28;0.60;;;0.60;;
64678;SDS011;51094;53.864;27.676;2023-05-10T13:11:00;0.73;;;0.73;;
64678;SDS011;51094;53.864;27.676;2023-05-10T13:13:27;0.63;;;0.63;;
64678;SDS011;51094;53.864;27.676;2023-05-10T13:15:54;0.70;;;0.70;;
64678;SDS011;51094;53.864;27.676;2023-05-10T13:18:21;0.60;;;0.60;;
64678;SDS011;51094;53.864;27.676;2023-05-10T13:20:48;0.60;;;0.60;;
64678;SDS011;51094;53.864;27.676;2023-05-10T13:23:19;0.80;;;0.80;;
64678;SDS011;51094;53.864;27.676;2023-05-10T13:25:45;0.70;;;0.70;;
64678;SDS011;51094;53.864;27.676;2023-05-10T13:28:12;0.80;;;0.80;;
64678;SDS011;51094;53.864;27.676;2023-05-10T13:30:39;0.75;;;0.75;;
64678;SDS011;51094;53.864;27.676;2023-05-10T13:33:06;0.63;;;0.63;;
64678;SDS011;51094;53.864;27.676;2023-05-10T13:35:32;0.60;;;0.60;;
64678;SDS011;51094;53.864;27.676;2023-05-10T13:37:59;0.70;;;0.70;;
64678;SDS011;51094;53.864;27.676;2023-05-10T13:40:26;0.88;;;0.88;;
64678;SDS011;51094;53.864;27.676;2023-05-10T13:42:52;0.70;;;0.70;;
64678;SDS011;51094;53.864;27.676;2023-05-10T13:45:19;0.80;;;0.80;;
64678;SDS011;51094;53.864;27.676;2023-05-10T13:47:47;0.90;;;0.90;;
64678;SDS011;51094;53.864;27.676;2023-05-10T13:50:14;0.80;;;0.80;;
64678;SDS011;51094;53.864;27.676;2023-05-10T13:52:40;0.90;;;0.90;;
64678;SDS011;51094;53.864;27.676;2023-05-10T13:55:07;0.80;;;0.80;;
64678;SDS011;51094;53.864;27.676;2023-05-10T13:57:34;0.80;;;0.80;;
64678;SDS011;51094;53.864;27.676;2023-05-10T14:00:02;0.90;;;0.90;;
64678;SDS011;51094;53.864;27.676;2023-05-10T14:02:33;0.90;;;0.90;;
64678;SDS011;51094;53.864;27.676;2023-05-10T14:05:01;0.80;;;0.80;;
64678;SDS011;51094;53.864;27.676;2023-05-10T14:07:27;0.90;;;0.90;;
64678;SDS011;51094;53.864;27.676;2023-05-10T14:09:54;0.80;;;0.80;;
64678;SDS011;51094;53.864;27.676;2023-05-10T14:12:21;0.75;;;0.75;;
64678;SDS011;51094;53.864;27.676;2023-05-10T14:14:48;0.85;;;0.85;;
64678;SDS011;51094;53.864;27.676;2023-05-10T14:17:15;0.90;;;0.90;;
64678;SDS011;51094;53.864;27.676;2023-05-10T14:19:42;0.85;;;0.85;;
64678;SDS011;51094;53.864;27.676;2023-05-10T14:22:09;0.80;;;0.80;;
64678;SDS011;51094;53.864;27.676;2023-05-10T14:24:37;0.90;;;0.90;;
64678;SDS011;51094;53.864;27.676;2023-05-10T14:27:04;0.93;;;0.93;;
64678;SDS011;51094;53.864;27.676;2023-05-10T14:29:32;0.88;;;0.88;;
64678;SDS011;51094;53.864;27.676;2023-05-10T14:31:59;0.85;;;0.85;;
64678;SDS011;51094;53.864;27.676;2023-05-10T14:34:26;0.80;;;0.80;;
64678;SDS011;51094;53.864;27.676;2023-05-10T14:36:52;0.90;;;0.90;;
64678;SDS011;51094;53.864;27.676;2023-05-10T14:39:19;0.95;;;0.95;;
64678;SDS011;51094;53.864;27.676;2023-05-10T14:41:46;1.00;;;1.00;;
64678;SDS011;51094;53.864;27.676;2023-05-10T14:44:13;0.80;;;0.80;;
64678;SDS011;51094;53.864;27.676;2023-05-10T14:46:41;0.95;;;0.95;;
64678;SDS011;51094;53.864;27.676;2023-05-10T14:49:08;0.98;;;0.98;;
64678;SDS011;51094;53.864;27.676;2023-05-10T14:51:35;0.80;;;0.80;;
64678;SDS011;51094;53.864;27.676;2023-05-10T14:54:03;0.82;;;0.82;;
64678;SDS011;51094;53.864;27.676;2023-05-10T14:56:30;0.90;;;0.90;;
64678;SDS011;51094;53.864;27.676;2023-05-10T14:58:59;0.90;;;0.90;;
64678;SDS011;51094;53.864;27.676;2023-05-10T15:01:27;0.80;;;0.80;;
64678;SDS011;51094;53.864;27.676;2023-05-10T15:03:55;1.00;;;1.00;;
64678;SDS011;51094;53.864;27.676;2023-05-10T15:06:23;0.90;;;0.90;;
64678;SDS011;51094;53.864;27.676;2023-05-10T15:08:57;1.00;;;1.00;;
64678;SDS011;51094;53.864;27.676;2023-05-10T15:11:23;1.13;;;1.13;;
64678;SDS011;51094;53.864;27.676;2023-05-10T15:13:51;1.10;;;1.10;;
64678;SDS011;51094;53.864;27.676;2023-05-10T15:16:18;0.90;;;0.90;;
64678;SDS011;51094;53.864;27.676;2023-05-10T15:18:45;1.08;;;1.08;;
64678;SDS011;51094;53.864;27.676;2023-05-10T15:21:12;1.15;;;1.15;;
64678;SDS011;51094;53.864;27.676;2023-05-10T15:23:39;1.15;;;1.15;;